createdAt,value
2018-12-03T00:01:28.875Z,11.90
2018-12-03T00:04:02.013Z,11.90
2018-12-03T00:06:30.235Z,11.90
2018-12-03T00:08:58.461Z,11.80
2018-12-03T00:11:26.736Z,11.90
2018-12-03T00:13:55.083Z,11.90
2018-12-03T00:16:23.459Z,11.90
2018-12-03T00:18:51.730Z,11.90
2018-12-03T00:21:20.120Z,11.90
2018-12-03T00:23:48.511Z,11.80
2018-12-03T00:26:16.962Z,11.90
2018-12-03T00:28:45.336Z,11.80
2018-12-03T00:31:13.556Z,11.90
2018-12-03T00:33:41.841Z,11.80
2018-12-03T00:36:10.334Z,11.80
2018-12-03T00:38:38.648Z,11.90
2018-12-03T00:41:07.048Z,11.80
2018-12-03T00:43:35.318Z,11.90
2018-12-03T00:46:03.631Z,11.80
2018-12-03T00:48:31.949Z,11.80
2018-12-03T00:51:00.487Z,11.80
2018-12-03T00:53:28.775Z,11.90
2018-12-03T00:55:57.194Z,11.80
2018-12-03T00:58:25.469Z,11.90
2018-12-03T01:00:54.555Z,11.90
2018-12-03T01:03:22.831Z,11.80
2018-12-03T01:05:51.115Z,11.90
2018-12-03T01:08:19.595Z,11.80
2018-12-03T01:10:47.939Z,11.80
2018-12-03T01:13:16.550Z,11.90
2018-12-03T01:15:44.939Z,11.80
2018-12-03T01:18:13.270Z,11.80
2018-12-03T01:20:41.587Z,11.80
2018-12-03T01:23:09.968Z,11.80
2018-12-03T01:25:38.251Z,11.80
2018-12-03T01:28:06.767Z,11.80
2018-12-03T01:30:35.113Z,11.80
2018-12-03T01:33:03.394Z,11.80
2018-12-03T01:35:31.760Z,11.80
2018-12-03T01:38:00.135Z,11.80
2018-12-03T01:40:28.788Z,11.80
2018-12-03T01:42:57.282Z,11.80
2018-12-03T01:45:25.685Z,11.80
2018-12-03T01:47:53.892Z,11.90
2018-12-03T01:50:22.180Z,11.80
2018-12-03T01:52:50.587Z,11.70
2018-12-03T01:55:18.936Z,11.70
2018-12-03T01:57:47.328Z,11.70
2018-12-03T02:00:17.230Z,11.80
2018-12-03T02:02:45.497Z,11.80
2018-12-03T02:05:13.984Z,11.80
2018-12-03T02:07:42.491Z,11.80
2018-12-03T02:10:14.478Z,11.80
2018-12-03T02:12:42.842Z,11.80
2018-12-03T02:15:12.341Z,11.80
2018-12-03T02:17:41.286Z,11.80
2018-12-03T02:20:10.794Z,11.90
2018-12-03T02:22:39.203Z,11.90
2018-12-03T02:25:08.763Z,11.80
2018-12-03T02:27:37.062Z,11.80
2018-12-03T02:30:12.244Z,11.90
2018-12-03T02:32:40.747Z,11.80
2018-12-03T02:35:11.089Z,11.80
2018-12-03T02:37:39.795Z,11.80
2018-12-03T02:40:14.148Z,11.80
2018-12-03T02:42:42.422Z,11.90
2018-12-03T02:45:11.603Z,11.90
2018-12-03T02:47:40.080Z,11.90
2018-12-03T02:50:12.564Z,11.90
2018-12-03T02:52:40.927Z,12.00
2018-12-03T02:55:10.117Z,12.00
2018-12-03T02:57:38.550Z,12.00
2018-12-03T03:00:12.234Z,12.00
2018-12-03T03:02:40.634Z,12.00
2018-12-03T03:05:10.549Z,12.00
2018-12-03T03:07:38.832Z,12.10
2018-12-03T03:10:11.242Z,12.10
2018-12-03T03:12:39.630Z,12.10
2018-12-03T03:15:11.103Z,12.10
2018-12-03T03:17:39.589Z,12.10
2018-12-03T03:20:09.492Z,12.10
2018-12-03T03:22:37.850Z,12.20
2018-12-03T03:25:07.244Z,12.20
2018-12-03T03:27:35.672Z,12.20
2018-12-03T03:30:05.435Z,12.10
2018-12-03T03:32:34.950Z,12.10
2018-12-03T03:35:02.169Z,12.10
2018-12-03T03:37:30.579Z,12.00
2018-12-03T03:39:58.907Z,12.00
2018-12-03T03:42:27.281Z,12.00
2018-12-03T03:44:55.683Z,12.00
2018-12-03T03:47:24.058Z,12.00
2018-12-03T03:49:52.479Z,11.90
2018-12-03T03:52:20.773Z,11.90
2018-12-03T03:54:49.154Z,11.90
2018-12-03T03:57:17.511Z,11.90
2018-12-03T03:59:45.785Z,11.90
2018-12-03T04:02:14.152Z,11.90
2018-12-03T04:04:42.517Z,12.00
2018-12-03T04:07:11.192Z,12.00
2018-12-03T04:09:45.783Z,12.10
2018-12-03T04:12:14.182Z,12.10
2018-12-03T04:14:42.735Z,12.10
2018-12-03T04:17:11.103Z,12.10
2018-12-03T04:19:39.517Z,12.10
2018-12-03T04:22:08.003Z,12.00
2018-12-03T04:24:36.504Z,12.00
2018-12-03T04:27:04.786Z,12.00
2018-12-03T04:29:33.020Z,12.00
2018-12-03T04:32:01.525Z,12.00
2018-12-03T04:34:30.157Z,11.90
2018-12-03T04:36:58.471Z,11.90
2018-12-03T04:39:26.809Z,11.90
2018-12-03T04:41:55.269Z,12.00
2018-12-03T04:44:23.719Z,11.90
2018-12-03T04:46:52.077Z,11.90
2018-12-03T04:49:21.762Z,11.90
2018-12-03T04:51:50.622Z,12.00
2018-12-03T04:54:19.002Z,12.00
2018-12-03T04:56:47.291Z,12.00
2018-12-03T04:59:15.603Z,12.00
2018-12-03T05:01:43.890Z,12.00
2018-12-03T05:04:12.255Z,12.00
2018-12-03T05:06:40.591Z,12.00
2018-12-03T05:09:09.453Z,12.00
2018-12-03T05:11:38.119Z,12.10
2018-12-03T05:14:06.436Z,12.10
2018-12-03T05:16:34.722Z,12.10
2018-12-03T05:19:03.474Z,12.10
2018-12-03T05:21:31.859Z,12.10
2018-12-03T05:24:04.252Z,12.10
2018-12-03T05:26:28.882Z,12.20
2018-12-03T05:28:57.235Z,12.20
2018-12-03T05:31:25.465Z,12.20
2018-12-03T05:33:53.947Z,12.20
2018-12-03T05:36:22.267Z,12.30
2018-12-03T05:38:50.649Z,12.30
2018-12-03T05:41:18.959Z,12.30
2018-12-03T05:43:47.337Z,12.30
2018-12-03T05:46:17.020Z,12.30
2018-12-03T05:48:45.311Z,12.30
2018-12-03T05:51:13.771Z,12.30
2018-12-03T05:53:42.346Z,12.40
2018-12-03T05:56:10.882Z,12.30
2018-12-03T05:58:39.373Z,12.30
2018-12-03T06:01:07.777Z,12.30
2018-12-03T06:03:36.134Z,12.30
2018-12-03T06:06:04.734Z,12.30
2018-12-03T06:08:33.317Z,12.30
2018-12-03T06:11:01.823Z,12.40
2018-12-03T06:13:30.163Z,12.40
2018-12-03T06:15:58.928Z,12.40
2018-12-03T06:18:27.177Z,12.50
2018-12-03T06:20:56.138Z,12.50
2018-12-03T06:23:24.673Z,12.50
2018-12-03T06:25:53.052Z,12.60
2018-12-03T06:28:21.485Z,12.50
2018-12-03T06:30:49.813Z,12.50
2018-12-03T06:33:18.107Z,12.50
2018-12-03T06:35:46.792Z,12.50
2018-12-03T06:38:15.592Z,12.50
2018-12-03T06:40:43.795Z,12.40
2018-12-03T06:43:12.196Z,12.40
2018-12-03T06:45:40.710Z,12.40
2018-12-03T06:48:15.246Z,12.40
2018-12-03T06:50:43.644Z,12.40
2018-12-03T06:53:11.958Z,12.50
2018-12-03T06:55:40.473Z,12.40
2018-12-03T06:58:09.052Z,12.40
2018-12-03T07:00:37.472Z,12.40
2018-12-03T07:03:06.036Z,12.30
2018-12-03T07:05:34.766Z,12.30
2018-12-03T07:08:03.599Z,12.40
2018-12-03T07:10:34.830Z,12.30
2018-12-03T07:13:05.675Z,12.30
2018-12-03T07:15:35.594Z,12.40
2018-12-03T07:18:03.962Z,12.30
2018-12-03T07:20:32.200Z,12.30
2018-12-03T07:23:00.512Z,12.20
2018-12-03T07:25:28.733Z,12.20
2018-12-03T07:27:57.079Z,12.10
2018-12-03T07:30:26.171Z,12.10
2018-12-03T07:32:54.474Z,12.10
2018-12-03T07:35:23.403Z,12.10
2018-12-03T07:37:54.030Z,12.00
2018-12-03T07:40:22.170Z,12.00
2018-12-03T07:42:50.682Z,12.00
2018-12-03T07:45:20.902Z,12.00
2018-12-03T07:47:50.593Z,12.00
2018-12-03T07:50:20.705Z,12.00
2018-12-03T07:52:49.120Z,12.00
2018-12-03T07:55:18.795Z,12.00
2018-12-03T07:57:50.547Z,12.00
2018-12-03T08:00:20.740Z,12.00
2018-12-03T08:02:49.195Z,11.90
2018-12-03T08:05:17.493Z,11.90
2018-12-03T08:07:45.807Z,11.90
2018-12-03T08:10:16.235Z,11.90
2018-12-03T08:12:45.542Z,11.80
2018-12-03T08:15:16.700Z,11.80
2018-12-03T08:17:46.539Z,11.80
2018-12-03T08:20:20.475Z,11.80
2018-12-03T08:22:50.745Z,11.90
2018-12-03T08:25:19.770Z,12.00
2018-12-03T08:27:48.410Z,11.90
2018-12-03T08:30:16.778Z,12.00
2018-12-03T08:32:45.156Z,12.00
2018-12-03T08:35:15.022Z,12.10
2018-12-03T08:37:43.469Z,12.10
2018-12-03T08:40:17.986Z,12.20
2018-12-03T08:42:48.444Z,12.30
2018-12-03T08:45:17.048Z,12.30
2018-12-03T08:47:45.752Z,12.40
2018-12-03T08:50:19.060Z,12.40
2018-12-03T08:52:47.406Z,12.50
2018-12-03T08:55:15.909Z,12.60
2018-12-03T08:57:44.365Z,12.60
2018-12-03T09:00:14.600Z,12.60
2018-12-03T09:02:52.080Z,12.60
2018-12-03T09:05:20.448Z,12.60
2018-12-03T09:07:49.146Z,12.60
2018-12-03T09:10:17.821Z,12.70
2018-12-03T09:12:46.183Z,12.70
2018-12-03T09:15:14.480Z,12.70
2018-12-03T09:17:42.910Z,12.70
2018-12-03T09:20:11.177Z,12.70
2018-12-03T09:22:39.522Z,12.70
2018-12-03T09:25:12.495Z,12.70
2018-12-03T09:27:40.778Z,12.80
2018-12-03T09:30:09.297Z,12.80
2018-12-03T09:32:37.772Z,12.90
2018-12-03T09:35:08.203Z,13.00
2018-12-03T09:37:36.397Z,13.10
2018-12-03T09:40:08.096Z,13.00
2018-12-03T09:42:36.294Z,13.00
2018-12-03T09:45:09.600Z,13.00
2018-12-03T09:47:39.827Z,12.90
2018-12-03T09:50:14.987Z,13.00
2018-12-03T09:52:43.323Z,13.10
2018-12-03T09:55:13.932Z,13.10
2018-12-03T09:57:42.201Z,13.20
2018-12-03T10:00:17.739Z,13.30
2018-12-03T10:02:46.103Z,13.40
2018-12-03T10:05:15.475Z,13.50
2018-12-03T10:07:43.634Z,13.50
2018-12-03T10:10:15.363Z,13.50
2018-12-03T10:12:43.689Z,13.50
2018-12-03T10:15:13.251Z,13.40
2018-12-03T10:17:41.424Z,13.40
2018-12-03T10:20:11.426Z,13.40
2018-12-03T10:22:39.714Z,13.50
2018-12-03T10:25:11.426Z,13.50
2018-12-03T10:27:39.750Z,13.40
2018-12-03T10:30:12.644Z,13.40
2018-12-03T10:32:40.810Z,13.40
2018-12-03T10:35:08.983Z,13.40
2018-12-03T10:37:37.147Z,13.30
2018-12-03T10:40:12.764Z,13.20
2018-12-03T10:42:42.063Z,13.10
2018-12-03T10:45:12.685Z,13.10
2018-12-03T10:47:41.010Z,13.10
2018-12-03T10:50:12.482Z,13.20
2018-12-03T10:52:40.680Z,13.20
2018-12-03T10:55:10.104Z,13.20
2018-12-03T10:57:38.812Z,13.20
2018-12-03T11:00:22.998Z,13.30
2018-12-03T11:02:58.095Z,13.30
2018-12-03T11:05:34.390Z,13.30
2018-12-03T11:08:02.590Z,13.30
2018-12-03T11:10:33.885Z,13.10
2018-12-03T11:13:02.150Z,13.10
2018-12-03T11:15:30.346Z,13.00
2018-12-03T11:17:59.010Z,12.90
2018-12-03T11:20:27.211Z,12.80
2018-12-03T11:22:56.428Z,12.70
2018-12-03T11:25:32.522Z,12.60
2018-12-03T11:28:02.152Z,12.50
2018-12-03T11:30:32.109Z,12.40
2018-12-03T11:33:00.265Z,12.30
2018-12-03T11:35:30.399Z,12.20
2018-12-03T11:38:17.726Z,12.10
2018-12-03T11:40:52.035Z,12.00
2018-12-03T11:43:20.272Z,12.10
2018-12-03T11:45:48.551Z,12.00
2018-12-03T11:48:16.724Z,12.00
2018-12-03T11:50:44.860Z,12.00
2018-12-03T11:53:13.015Z,12.00
2018-12-03T11:55:41.652Z,12.00
2018-12-03T11:58:09.828Z,12.00
2018-12-03T12:00:38.050Z,12.10
2018-12-03T12:03:06.427Z,12.10
2018-12-03T12:05:34.602Z,12.10
2018-12-03T12:08:02.846Z,12.10
2018-12-03T12:10:31.081Z,12.10
2018-12-03T12:12:59.344Z,12.10
2018-12-03T12:15:28.564Z,12.10
2018-12-03T12:17:56.965Z,12.10
2018-12-03T12:20:27.147Z,12.10
2018-12-03T12:22:55.555Z,12.10
2018-12-03T12:25:23.826Z,12.20
2018-12-03T12:27:54.686Z,12.20
2018-12-03T12:30:22.842Z,12.20
2018-12-03T12:32:51.108Z,12.20
2018-12-03T12:35:19.304Z,12.20
2018-12-03T12:37:47.430Z,12.20
2018-12-03T12:40:15.703Z,12.30
2018-12-03T12:42:44.220Z,12.30
2018-12-03T12:45:18.235Z,12.30
2018-12-03T12:47:46.527Z,12.20
2018-12-03T12:50:17.057Z,12.20
2018-12-03T12:52:45.209Z,12.20
2018-12-03T12:55:13.391Z,12.20
2018-12-03T12:57:41.555Z,12.30
2018-12-03T13:00:14.020Z,12.30
2018-12-03T13:02:42.559Z,12.30
2018-12-03T13:05:10.779Z,12.30
2018-12-03T13:07:39.167Z,12.30
2018-12-03T13:10:11.233Z,12.30
2018-12-03T13:12:39.397Z,12.30
2018-12-03T13:15:10.201Z,12.40
2018-12-03T13:17:38.822Z,12.30
2018-12-03T13:20:11.409Z,12.30
2018-12-03T13:22:39.600Z,12.30
2018-12-03T13:25:10.456Z,12.40
2018-12-03T13:27:38.650Z,12.40
2018-12-03T13:30:11.204Z,12.40
2018-12-03T13:32:39.378Z,12.40
2018-12-03T13:35:09.227Z,12.40
2018-12-03T13:37:37.454Z,12.40
2018-12-03T13:40:09.151Z,12.40
2018-12-03T13:42:37.314Z,12.40
2018-12-03T13:45:08.141Z,12.30
2018-12-03T13:47:36.316Z,12.30
2018-12-03T13:50:06.090Z,12.30
2018-12-03T13:52:34.273Z,12.40
2018-12-03T13:55:02.930Z,12.40
2018-12-03T13:57:31.096Z,12.50
2018-12-03T13:59:59.471Z,12.50
2018-12-03T14:02:27.622Z,12.40
2018-12-03T14:04:55.814Z,12.50
2018-12-03T14:07:31.206Z,12.40
2018-12-03T14:12:10.452Z,12.40
2018-12-03T14:14:51.511Z,12.30
2018-12-03T14:17:30.279Z,12.10
2018-12-03T14:20:03.042Z,12.10
2018-12-03T14:22:41.233Z,12.10
2018-12-03T14:25:14.328Z,12.10
2018-12-03T14:27:55.379Z,12.10
2018-12-03T14:30:24.654Z,12.10
2018-12-03T14:33:35.259Z,12.00
2018-12-03T14:36:12.064Z,12.00
2018-12-03T14:38:57.354Z,11.90
2018-12-03T14:41:29.044Z,11.90
2018-12-03T14:43:57.780Z,11.80
2018-12-03T14:46:26.100Z,11.80
2018-12-03T14:48:54.492Z,11.80
2018-12-03T14:51:22.974Z,11.80
2018-12-03T14:53:51.353Z,11.80
2018-12-03T14:56:19.890Z,11.70
2018-12-03T14:58:48.416Z,11.70
2018-12-03T15:01:17.279Z,11.60
2018-12-03T15:03:45.828Z,11.60
2018-12-03T15:06:14.288Z,11.50
2018-12-03T15:08:43.302Z,11.50
2018-12-03T15:11:12.046Z,11.40
2018-12-03T15:13:42.149Z,11.50
2018-12-03T15:16:15.113Z,11.40
2018-12-03T15:18:43.483Z,11.40
2018-12-03T15:21:12.090Z,11.40
2018-12-03T15:23:48.029Z,11.40
2018-12-03T15:26:16.500Z,11.40
2018-12-03T15:28:44.872Z,11.40
2018-12-03T15:31:13.315Z,11.50
2018-12-03T15:33:41.776Z,11.40
2018-12-03T15:36:10.282Z,11.40
2018-12-03T15:38:56.701Z,11.40
2018-12-03T15:41:26.731Z,11.30
2018-12-03T15:43:54.995Z,11.30
2018-12-03T15:46:23.512Z,11.20
2018-12-03T15:48:51.728Z,11.20
2018-12-03T15:51:20.007Z,11.20
2018-12-03T15:53:48.265Z,11.20
2018-12-03T15:56:16.566Z,11.20
2018-12-03T15:58:44.793Z,11.20
2018-12-03T16:01:14.530Z,11.20
2018-12-03T16:03:41.407Z,11.20
2018-12-03T16:06:09.776Z,11.20
2018-12-03T16:09:26.074Z,11.30
2018-12-03T16:11:54.452Z,11.30
2018-12-03T16:14:22.786Z,11.30
2018-12-03T16:16:51.051Z,11.30
2018-12-03T16:19:19.459Z,11.30
2018-12-03T16:21:47.921Z,11.30
2018-12-03T16:24:16.271Z,11.30
2018-12-03T16:26:44.707Z,11.30
2018-12-03T16:29:13.001Z,11.30
2018-12-03T16:31:41.299Z,11.30
2018-12-03T16:34:09.604Z,11.30
2018-12-03T16:36:38.557Z,11.30
2018-12-03T16:39:08.329Z,11.40
2018-12-03T16:41:36.764Z,11.30
2018-12-03T16:44:06.220Z,11.30
2018-12-03T16:46:34.858Z,11.30
2018-12-03T16:49:03.308Z,11.30
2018-12-03T16:51:31.552Z,11.30
2018-12-03T16:53:59.920Z,11.30
2018-12-03T16:56:29.552Z,11.40
2018-12-03T16:58:58.043Z,11.40
2018-12-03T17:01:26.438Z,11.40
2018-12-03T17:03:54.662Z,11.40
2018-12-03T17:06:22.869Z,11.50
2018-12-03T17:08:51.215Z,11.40
2018-12-03T17:11:20.321Z,11.40
2018-12-03T17:13:50.288Z,11.40
2018-12-03T17:16:18.772Z,11.40
2018-12-03T17:18:47.107Z,11.40
2018-12-03T17:21:22.001Z,11.40
2018-12-03T17:24:03.288Z,11.40
2018-12-03T17:26:37.332Z,11.40
2018-12-03T17:29:05.598Z,11.40
2018-12-03T17:31:33.873Z,11.40
2018-12-03T17:34:02.376Z,11.40
2018-12-03T17:36:30.742Z,11.40
2018-12-03T17:38:59.083Z,11.40
2018-12-03T17:41:27.313Z,11.30
2018-12-03T17:43:55.560Z,11.20
2018-12-03T17:46:23.907Z,11.10
2018-12-03T17:48:52.157Z,11.00
2018-12-03T17:51:35.251Z,10.90
2018-12-03T17:54:04.035Z,10.80
2018-12-03T17:56:32.367Z,10.70
2018-12-03T17:59:19.938Z,10.60
2018-12-03T18:01:48.303Z,10.50
2018-12-03T18:04:16.587Z,10.40
2018-12-03T18:06:46.027Z,10.30
2018-12-03T18:09:18.389Z,10.30
2018-12-03T18:12:06.211Z,10.20
2018-12-03T18:17:36.778Z,10.00
2018-12-03T18:23:01.807Z,10.00
2018-12-03T18:25:30.528Z,9.90
2018-12-03T18:28:18.538Z,9.80
2018-12-03T18:31:00.696Z,9.80
2018-12-03T18:39:36.731Z,9.70
2018-12-03T18:51:11.950Z,9.70
2018-12-03T18:53:48.173Z,9.70
2018-12-03T18:56:23.251Z,9.70
2018-12-03T18:59:01.941Z,9.80
2018-12-03T19:04:29.255Z,9.80
2018-12-03T19:07:08.112Z,9.80
2018-12-03T19:12:41.813Z,9.80
2018-12-03T19:15:15.950Z,9.80
2018-12-03T19:20:58.427Z,10.00
2018-12-03T19:23:33.177Z,10.00
2018-12-03T19:26:16.315Z,10.10
2018-12-03T19:28:51.447Z,10.20
2018-12-03T19:31:38.213Z,10.30
2018-12-03T19:34:13.979Z,10.40
2018-12-03T19:36:48.194Z,10.50
2018-12-03T19:39:23.919Z,10.50
2018-12-03T19:42:08.937Z,10.60
2018-12-03T19:44:38.084Z,10.70
2018-12-03T19:47:17.850Z,10.80
2018-12-03T19:49:52.479Z,10.80
2018-12-03T19:52:31.752Z,10.80
2018-12-03T19:55:04.465Z,10.80
2018-12-03T19:57:39.273Z,10.80
2018-12-03T20:00:15.704Z,10.80
2018-12-03T20:02:51.943Z,10.80
2018-12-03T20:05:27.864Z,10.80
2018-12-03T20:08:10.015Z,10.90
2018-12-03T20:10:47.387Z,10.90
2018-12-03T20:13:28.126Z,10.90
2018-12-03T20:16:13.019Z,10.90
2018-12-03T20:18:51.680Z,10.90
2018-12-03T20:21:30.234Z,11.00
2018-12-03T20:24:13.135Z,11.10
2018-12-03T20:26:53.847Z,11.20
2018-12-03T20:29:38.297Z,11.30
2018-12-03T20:32:29.879Z,11.30
2018-12-03T20:35:11.916Z,11.30
2018-12-03T20:37:53.898Z,11.30
2018-12-03T20:41:32.405Z,11.30
2018-12-03T20:44:10.450Z,11.20
2018-12-03T20:46:53.590Z,11.10
2018-12-03T20:49:34.791Z,11.20
2018-12-03T20:52:13.682Z,11.10
2018-12-03T20:54:54.562Z,11.10
2018-12-03T21:03:17.717Z,11.00
2018-12-03T21:05:58.907Z,10.90
2018-12-03T21:08:44.299Z,10.90
2018-12-03T21:11:31.287Z,10.80
2018-12-03T21:14:20.101Z,10.90
2018-12-03T21:16:46.581Z,10.90
2018-12-03T21:19:15.180Z,10.90
2018-12-03T21:24:42.800Z,10.90
2018-12-03T21:39:08.052Z,10.90
2018-12-03T21:41:39.580Z,10.80
2018-12-03T21:44:27.238Z,10.40
2018-12-03T21:47:03.648Z,10.20
2018-12-03T21:49:41.402Z,9.90
2018-12-03T21:52:15.430Z,9.70
2018-12-03T21:54:50.527Z,9.60
2018-12-03T21:57:24.816Z,9.40
2018-12-03T21:59:59.437Z,9.30
2018-12-03T22:02:28.023Z,9.20
2018-12-03T22:04:56.255Z,9.00
2018-12-03T22:07:24.705Z,8.90
2018-12-03T22:12:49.996Z,8.60
2018-12-03T22:15:24.366Z,8.50
2018-12-03T22:17:58.335Z,8.40
2018-12-03T22:20:29.982Z,8.20
2018-12-03T22:22:58.308Z,8.10
2018-12-03T22:28:28.858Z,8.10
2018-12-03T22:30:57.122Z,8.10
2018-12-03T22:33:28.770Z,8.00
2018-12-03T22:36:04.507Z,8.00
2018-12-03T22:38:44.740Z,7.80
2018-12-03T22:41:14.796Z,7.70
2018-12-03T22:43:43.039Z,7.70
2018-12-03T22:46:15.191Z,7.60
2018-12-03T22:48:43.474Z,7.70
2018-12-03T22:51:11.748Z,7.70
2018-12-03T22:56:33.083Z,7.70
2018-12-03T22:59:02.679Z,7.60
2018-12-03T23:01:38.794Z,7.60
2018-12-03T23:04:21.434Z,7.60
2018-12-03T23:09:51.555Z,7.60
2018-12-03T23:15:19.665Z,7.60
2018-12-03T23:17:47.934Z,7.60
2018-12-03T23:20:23.522Z,7.50
2018-12-03T23:22:51.805Z,7.50
2018-12-03T23:25:20.091Z,7.50
2018-12-03T23:27:48.298Z,7.50
2018-12-03T23:30:16.613Z,7.60
2018-12-03T23:32:44.961Z,7.60
2018-12-03T23:35:13.161Z,7.50
2018-12-03T23:37:41.424Z,7.60
2018-12-03T23:40:09.741Z,7.50
2018-12-03T23:42:37.988Z,7.50
2018-12-03T23:45:06.419Z,7.50
2018-12-03T23:47:34.558Z,7.60
2018-12-03T23:50:02.956Z,7.60
2018-12-03T23:52:31.186Z,7.50
2018-12-03T23:54:59.386Z,7.50
2018-12-03T23:57:28.193Z,7.40
2018-12-03T23:59:56.377Z,7.40
